createdAt,value
2023-04-15T00:00:35.507Z,100119.89
2023-04-15T00:03:29.685Z,100118.45
2023-04-15T00:06:35.892Z,100111.59
2023-04-15T00:09:41.908Z,100123.31
2023-04-15T00:12:48.441Z,100123.31
2023-04-15T00:19:53.037Z,100123.52
2023-04-15T00:22:59.172Z,100129.94
2023-04-15T00:26:05.870Z,100126.71
2023-04-15T00:29:12.938Z,100124.25
2023-04-15T00:32:19.085Z,100129.89
2023-04-15T00:35:24.664Z,100122.94
2023-04-15T00:38:31.159Z,100125.69
2023-04-15T00:41:36.848Z,100124.88
2023-04-15T00:44:43.890Z,100131.30
2023-04-15T00:47:49.817Z,100130.11
2023-04-15T00:50:56.510Z,100132.48
2023-04-15T00:54:02.599Z,100134.74
2023-04-15T00:57:10.042Z,100131.68
2023-04-15T01:00:18.392Z,100135.72
2023-04-15T01:03:24.358Z,100135.63
2023-04-15T01:06:31.196Z,100136.64
2023-04-15T01:09:36.682Z,100134.60
2023-04-15T01:12:44.926Z,100136.02
2023-04-15T01:15:51.856Z,100140.77
2023-04-15T01:18:59.462Z,100140.89
2023-04-15T01:22:06.338Z,100148.11
2023-04-15T01:25:21.986Z,100136.72
2023-04-15T01:28:28.483Z,100131.00
2023-04-15T01:31:36.254Z,100134.90
2023-04-15T01:34:35.774Z,100127.05
2023-04-15T01:37:41.883Z,100134.34
2023-04-15T01:40:48.993Z,100131.02
2023-04-15T01:43:55.491Z,100130.31
2023-04-15T01:47:02.194Z,100142.91
2023-04-15T01:50:08.676Z,100150.72
2023-04-15T01:53:09.025Z,100147.91
2023-04-15T01:56:16.844Z,100149.98
2023-04-15T01:59:23.593Z,100152.59
2023-04-15T02:02:31.292Z,100159.15
2023-04-15T02:05:37.181Z,100160.36
2023-04-15T02:08:43.314Z,100155.62
2023-04-15T02:11:50.082Z,100164.03
2023-04-15T02:14:55.126Z,100170.81
2023-04-15T02:18:02.780Z,100178.30
2023-04-15T02:21:09.022Z,100185.36
2023-04-15T02:24:15.732Z,100186.50
2023-04-15T02:27:21.248Z,100190.98
2023-04-15T02:30:28.734Z,100193.11
2023-04-15T02:33:36.099Z,100204.32
2023-04-15T02:36:41.173Z,100209.88
2023-04-15T02:39:47.213Z,100209.43
2023-04-15T02:42:56.513Z,100213.03
2023-04-15T02:46:02.879Z,100223.97
2023-04-15T02:49:06.219Z,100217.05
2023-04-15T02:51:55.656Z,100224.91
2023-04-15T02:54:47.843Z,100223.30
2023-04-15T02:57:33.506Z,100223.93
2023-04-15T03:00:27.555Z,100235.04
2023-04-15T03:03:28.178Z,100237.06
2023-04-15T03:06:33.999Z,100243.91
2023-04-15T03:09:39.576Z,100246.28
2023-04-15T03:12:44.186Z,100250.19
2023-04-15T03:15:50.244Z,100250.42
2023-04-15T03:18:57.354Z,100258.25
2023-04-15T03:22:03.584Z,100261.16
2023-04-15T03:25:08.873Z,100262.01
2023-04-15T03:28:17.096Z,100260.97
2023-04-15T03:31:23.801Z,100255.03
2023-04-15T03:34:28.716Z,100257.49
2023-04-15T03:37:34.560Z,100254.37
2023-04-15T03:40:40.498Z,100270.78
2023-04-15T03:43:45.706Z,100264.42
2023-04-15T03:46:52.189Z,100267.08
2023-04-15T03:49:58.726Z,100273.56
2023-04-15T03:53:04.864Z,100267.41
2023-04-15T03:56:10.509Z,100271.25
2023-04-15T03:59:17.045Z,100286.54
2023-04-15T04:02:22.899Z,100293.14
2023-04-15T04:05:28.525Z,100284.61
2023-04-15T04:08:35.424Z,100286.76
2023-04-15T04:11:41.150Z,100288.46
2023-04-15T04:14:47.063Z,100291.08
2023-04-15T04:17:53.991Z,100299.33
2023-04-15T04:20:59.450Z,100309.78
2023-04-15T04:24:05.332Z,100304.86
2023-04-15T04:27:10.697Z,100300.53
2023-04-15T04:30:17.309Z,100293.86
2023-04-15T04:33:25.026Z,100287.22
2023-04-15T04:36:31.602Z,100300.04
2023-04-15T04:39:37.845Z,100305.24
2023-04-15T04:42:44.282Z,100310.58
2023-04-15T04:45:50.904Z,100307.69
2023-04-15T04:48:56.541Z,100312.20
2023-04-15T04:52:02.376Z,100313.64
2023-04-15T04:55:09.751Z,100311.53
2023-04-15T04:58:15.522Z,100331.12
2023-04-15T05:01:22.373Z,100321.55
2023-04-15T05:04:28.847Z,100328.95
2023-04-15T05:07:34.652Z,100330.71
2023-04-15T05:10:33.919Z,100344.92
2023-04-15T05:13:28.464Z,100340.00
2023-04-15T05:16:34.734Z,100326.26
2023-04-15T05:19:40.589Z,100334.63
2023-04-15T05:22:47.781Z,100339.05
2023-04-15T05:25:53.652Z,100344.31
2023-04-15T05:29:00.295Z,100342.53
2023-04-15T05:32:06.594Z,100340.77
2023-04-15T05:35:11.931Z,100346.58
2023-04-15T05:38:18.233Z,100340.33
2023-04-15T05:41:23.950Z,100345.47
2023-04-15T05:44:30.125Z,100342.98
2023-04-15T05:47:35.336Z,100341.31
2023-04-15T05:50:41.805Z,100346.98
2023-04-15T05:53:48.532Z,100342.95
2023-04-15T05:56:53.647Z,100349.45
2023-04-15T05:59:59.405Z,100355.42
2023-04-15T06:03:13.408Z,100361.42
2023-04-15T06:06:21.134Z,100361.21
2023-04-15T06:09:26.991Z,100372.58
2023-04-15T06:12:32.961Z,100385.89
2023-04-15T06:15:39.314Z,100384.24
2023-04-15T06:18:44.917Z,100383.55
2023-04-15T06:21:50.192Z,100378.33
2023-04-15T06:24:57.770Z,100368.45
2023-04-15T06:28:03.663Z,100372.48
2023-04-15T06:31:10.352Z,100377.36
2023-04-15T06:34:16.434Z,100397.05
2023-04-15T06:37:23.231Z,100385.87
2023-04-15T06:40:29.226Z,100399.27
2023-04-15T06:43:36.085Z,100409.35
2023-04-15T06:46:42.630Z,100401.72
2023-04-15T06:49:48.180Z,100402.67
2023-04-15T06:52:55.508Z,100406.14
2023-04-15T06:56:02.111Z,100418.92
2023-04-15T06:59:07.301Z,100416.30
2023-04-15T07:02:13.021Z,100416.64
2023-04-15T07:05:20.028Z,100425.42
2023-04-15T07:08:27.424Z,100429.04
2023-04-15T07:11:33.936Z,100431.55
2023-04-15T07:14:39.967Z,100433.20
2023-04-15T07:17:46.105Z,100429.59
2023-04-15T07:20:52.821Z,100432.56
2023-04-15T07:23:58.908Z,100445.12
2023-04-15T07:27:08.216Z,100435.45
2023-04-15T07:30:12.918Z,100442.53
2023-04-15T07:33:18.050Z,100445.34
2023-04-15T07:36:24.151Z,100454.48
2023-04-15T07:39:29.333Z,100459.77
2023-04-15T07:42:34.037Z,100460.28
2023-04-15T07:45:40.854Z,100453.59
2023-04-15T07:48:46.328Z,100453.52
2023-04-15T07:51:52.389Z,100454.54
2023-04-15T07:54:58.647Z,100444.03
2023-04-15T07:58:04.149Z,100450.78
2023-04-15T08:01:09.970Z,100449.09
2023-04-15T08:04:16.242Z,100445.00
2023-04-15T08:07:23.524Z,100445.56
2023-04-15T08:10:29.215Z,100448.41
2023-04-15T08:13:35.277Z,100449.73
2023-04-15T08:16:41.810Z,100453.34
2023-04-15T08:19:48.953Z,100444.13
2023-04-15T08:22:56.768Z,100442.10
2023-04-15T08:26:02.829Z,100444.57
2023-04-15T08:29:09.221Z,100449.47
2023-04-15T08:32:15.155Z,100455.27
2023-04-15T08:35:22.835Z,100450.62
2023-04-15T08:38:28.794Z,100457.81
2023-04-15T08:41:41.102Z,100459.21
2023-04-15T08:44:49.137Z,100458.78
2023-04-15T08:47:54.917Z,100467.13
2023-04-15T08:51:01.748Z,100478.06
2023-04-15T08:54:09.141Z,100482.62
2023-04-15T08:57:14.835Z,100480.07
2023-04-15T09:00:22.307Z,100479.70
2023-04-15T09:03:30.400Z,100486.70
2023-04-15T09:06:37.267Z,100488.23
2023-04-15T09:09:43.930Z,100477.69
2023-04-15T09:12:51.810Z,100474.91
2023-04-15T09:15:58.013Z,100483.14
2023-04-15T09:19:03.954Z,100485.26
2023-04-15T09:22:12.034Z,100488.19
2023-04-15T09:25:17.578Z,100486.86
2023-04-15T09:28:23.920Z,100502.06
2023-04-15T09:31:30.034Z,100497.67
2023-04-15T09:34:35.060Z,100497.06
2023-04-15T09:37:53.306Z,100500.64
2023-04-15T09:40:59.374Z,100500.03
2023-04-15T09:44:04.979Z,100501.36
2023-04-15T09:47:11.667Z,100502.14
2023-04-15T09:50:16.679Z,100504.35
2023-04-15T09:53:26.146Z,100503.84
2023-04-15T09:56:31.924Z,100511.20
2023-04-15T09:59:38.290Z,100513.86
2023-04-15T10:02:44.895Z,100522.28
2023-04-15T10:05:50.959Z,100518.09
2023-04-15T10:08:58.641Z,100525.18
2023-04-15T10:12:05.230Z,100521.98
2023-04-15T10:15:16.106Z,100520.20
2023-04-15T10:18:21.872Z,100520.34
2023-04-15T10:21:26.658Z,100523.62
2023-04-15T10:24:31.655Z,100529.41
2023-04-15T10:27:37.154Z,100530.57
2023-04-15T10:30:36.330Z,100528.53
2023-04-15T10:33:41.568Z,100534.39
2023-04-15T10:36:48.876Z,100539.37
2023-04-15T10:39:58.814Z,100532.78
2023-04-15T10:43:05.052Z,100544.84
2023-04-15T10:46:10.543Z,100542.50
2023-04-15T10:49:15.641Z,100543.66
2023-04-15T10:52:21.713Z,100546.96
2023-04-15T10:55:41.391Z,100544.61
2023-04-15T10:58:58.913Z,100541.76
2023-04-15T11:02:14.039Z,100549.47
2023-04-15T11:05:20.847Z,100547.59
2023-04-15T11:08:26.398Z,100535.67
2023-04-15T11:11:33.208Z,100541.76
2023-04-15T11:14:38.473Z,100549.95
2023-04-15T11:17:46.645Z,100547.36
2023-04-15T11:20:55.326Z,100543.50
2023-04-15T11:24:02.227Z,100547.81
2023-04-15T11:27:13.343Z,100537.06
2023-04-15T11:30:41.170Z,100536.62
2023-04-15T11:33:48.596Z,100535.25
2023-04-15T11:36:55.356Z,100530.89
2023-04-15T11:40:02.636Z,100532.65
2023-04-15T11:43:28.208Z,100542.95
2023-04-15T11:46:33.315Z,100544.66
2023-04-15T11:49:45.924Z,100539.01
2023-04-15T11:52:51.557Z,100541.25
2023-04-15T11:56:03.023Z,100544.64
2023-04-15T11:59:11.480Z,100548.05
2023-04-15T12:02:22.369Z,100553.53
2023-04-15T12:05:28.758Z,100543.64
2023-04-15T12:08:34.286Z,100548.92
2023-04-15T12:11:54.569Z,100544.66
2023-04-15T12:15:00.836Z,100548.77
2023-04-15T12:18:08.838Z,100548.41
2023-04-15T12:21:25.874Z,100546.94
2023-04-15T12:24:33.355Z,100546.77
2023-04-15T12:27:43.506Z,100532.75
2023-04-15T12:30:49.991Z,100538.05
2023-04-15T12:33:57.094Z,100537.06
2023-04-15T12:37:02.734Z,100532.09
2023-04-15T12:40:03.004Z,100537.91
2023-04-15T12:42:49.664Z,100528.03
2023-04-15T12:45:42.379Z,100533.00
2023-04-15T12:48:29.216Z,100527.66
2023-04-15T12:51:23.631Z,100525.16
2023-04-15T12:54:28.495Z,100529.65
2023-04-15T12:57:33.726Z,100525.27
2023-04-15T13:00:39.741Z,100530.39
2023-04-15T13:03:45.697Z,100522.82
2023-04-15T13:06:52.813Z,100528.27
2023-04-15T13:09:59.307Z,100518.02
2023-04-15T13:13:09.235Z,100546.27
2023-04-15T13:16:17.125Z,100548.81
2023-04-15T13:19:22.825Z,100545.78
2023-04-15T13:22:28.507Z,100547.51
2023-04-15T13:25:35.312Z,100549.88
2023-04-15T13:28:40.617Z,100546.67
2023-04-15T13:31:45.519Z,100542.77
2023-04-15T13:34:50.948Z,100551.85
2023-04-15T13:37:56.390Z,100546.02
2023-04-15T13:41:03.222Z,100549.56
2023-04-15T13:44:08.546Z,100551.23
2023-04-15T13:47:07.528Z,100563.77
2023-04-15T13:49:55.485Z,100564.12
2023-04-15T13:52:49.072Z,100569.86
2023-04-15T13:55:55.552Z,100571.09
2023-04-15T13:59:02.895Z,100566.02
2023-04-15T14:02:08.446Z,100570.45
2023-04-15T14:05:13.997Z,100575.20
2023-04-15T14:08:20.543Z,100571.06
2023-04-15T14:11:25.646Z,100587.13
2023-04-15T14:14:31.121Z,100578.22
2023-04-15T14:17:37.249Z,100580.17
2023-04-15T14:20:43.516Z,100581.30
2023-04-15T14:23:49.617Z,100577.80
2023-04-15T14:26:55.582Z,100580.67
2023-04-15T14:30:01.546Z,100574.20
2023-04-15T14:33:08.722Z,100585.94
2023-04-15T14:36:14.509Z,100599.16
2023-04-15T14:39:19.979Z,100594.58
2023-04-15T14:42:26.603Z,100596.51
2023-04-15T14:45:33.050Z,100585.27
2023-04-15T14:48:38.766Z,100591.35
2023-04-15T14:51:44.573Z,100594.62
2023-04-15T14:54:50.186Z,100582.03
2023-04-15T14:57:56.330Z,100580.98
2023-04-15T15:01:03.099Z,100575.56
2023-04-15T15:04:08.914Z,100587.03
2023-04-15T15:07:15.553Z,100579.91
2023-04-15T15:10:34.652Z,100590.83
2023-04-15T15:13:23.565Z,100590.40
2023-04-15T15:16:28.249Z,100589.09
2023-04-15T15:19:34.128Z,100596.61
2023-04-15T15:22:39.854Z,100604.78
2023-04-15T15:25:45.459Z,100610.59
2023-04-15T15:28:53.054Z,100611.56
2023-04-15T15:31:58.639Z,100608.27
2023-04-15T15:35:05.132Z,100620.35
2023-04-15T15:38:11.202Z,100610.20
2023-04-15T15:41:17.684Z,100603.92
2023-04-15T15:44:24.285Z,100605.51
2023-04-15T15:47:30.874Z,100603.92
2023-04-15T15:50:37.317Z,100608.91
2023-04-15T15:53:43.271Z,100601.88
2023-04-15T15:56:49.678Z,100610.30
2023-04-15T16:00:10.191Z,100609.38
2023-04-15T16:03:06.597Z,100603.48
2023-04-15T16:06:13.043Z,100607.20
2023-04-15T16:09:20.027Z,100592.63
2023-04-15T16:12:25.193Z,100596.00
2023-04-15T16:15:30.616Z,100607.75
2023-04-15T16:18:36.256Z,100604.89
2023-04-15T16:21:42.942Z,100618.05
2023-04-15T16:24:48.717Z,100611.02
2023-04-15T16:28:03.443Z,100606.25
2023-04-15T16:31:01.738Z,100619.80
2023-04-15T16:34:22.735Z,100615.02
2023-04-15T16:37:29.126Z,100624.00
2023-04-15T16:40:34.439Z,100632.13
2023-04-15T16:43:41.034Z,100636.73
2023-04-15T16:46:46.268Z,100633.79
2023-04-15T16:49:52.331Z,100635.41
2023-04-15T16:52:52.284Z,100636.05
2023-04-15T16:55:57.943Z,100657.12
2023-04-15T16:59:03.107Z,100660.53
2023-04-15T17:02:11.562Z,100673.12
2023-04-15T17:05:18.416Z,100685.09
2023-04-15T17:08:24.970Z,100677.77
2023-04-15T17:11:30.185Z,100693.10
2023-04-15T17:14:35.923Z,100689.36
2023-04-15T17:17:41.852Z,100689.07
2023-04-15T17:20:47.331Z,100695.27
2023-04-15T17:23:52.388Z,100691.97
2023-04-15T17:26:58.750Z,100694.81
2023-04-15T17:30:04.142Z,100692.44
2023-04-15T17:33:50.461Z,100693.34
2023-04-15T17:36:11.496Z,100693.39
2023-04-15T17:39:18.664Z,100699.97
2023-04-15T17:42:26.544Z,100706.45
2023-04-15T17:45:32.809Z,100715.41
2023-04-15T17:48:38.598Z,100723.91
2023-04-15T17:51:43.588Z,100716.44
2023-04-15T17:54:48.928Z,100719.70
2023-04-15T17:57:56.548Z,100718.81
2023-04-15T18:01:02.002Z,100724.32
2023-04-15T18:04:08.812Z,100734.91
2023-04-15T18:07:14.227Z,100727.69
2023-04-15T18:10:20.366Z,100729.40
2023-04-15T18:13:26.634Z,100733.83
2023-04-15T18:16:32.067Z,100727.53
2023-04-15T18:19:33.231Z,100739.09
2023-04-15T18:22:26.248Z,100735.70
2023-04-15T18:25:31.960Z,100741.94
2023-04-15T18:28:38.584Z,100738.97
2023-04-15T18:31:45.868Z,100744.31
2023-04-15T18:34:52.093Z,100743.02
2023-04-15T18:37:51.362Z,100738.52
2023-04-15T18:40:57.361Z,100755.05
2023-04-15T18:44:02.741Z,100753.28
2023-04-15T18:47:08.057Z,100750.55
2023-04-15T18:50:13.225Z,100758.66
2023-04-15T18:53:19.959Z,100764.12
2023-04-15T18:56:25.956Z,100762.48
2023-04-15T18:59:32.197Z,100757.77
2023-04-15T19:02:39.041Z,100750.80
2023-04-15T19:05:45.026Z,100743.40
2023-04-15T19:08:50.608Z,100756.06
2023-04-15T19:11:57.332Z,100747.77
2023-04-15T19:15:02.877Z,100755.08
2023-04-15T19:18:08.685Z,100756.19
2023-04-15T19:21:14.196Z,100758.91
2023-04-15T19:24:20.897Z,100753.64
2023-04-15T19:27:27.044Z,100766.09
2023-04-15T19:30:33.147Z,100765.39
2023-04-15T19:33:38.748Z,100763.50
2023-04-15T19:36:44.355Z,100769.30
2023-04-15T19:39:49.973Z,100772.55
2023-04-15T19:42:55.368Z,100774.09
2023-04-15T19:46:02.009Z,100780.57
2023-04-15T19:49:08.854Z,100784.81
2023-04-15T19:52:13.714Z,100785.73
2023-04-15T19:55:19.233Z,100790.76
2023-04-15T19:58:24.605Z,100791.54
2023-04-15T20:01:30.222Z,100779.66
2023-04-15T20:04:35.984Z,100778.72
2023-04-15T20:07:41.622Z,100774.88
2023-04-15T20:10:47.881Z,100775.23
2023-04-15T20:13:53.839Z,100784.02
2023-04-15T20:16:58.987Z,100786.37
2023-04-15T20:20:05.234Z,100777.15
2023-04-15T20:23:10.287Z,100778.80
2023-04-15T20:26:16.039Z,100777.52
2023-04-15T20:29:22.489Z,100774.80
2023-04-15T20:32:28.477Z,100779.58
2023-04-15T20:35:37.417Z,100774.29
2023-04-15T20:38:43.864Z,100774.64
2023-04-15T20:41:49.654Z,100771.99
2023-04-15T20:44:56.204Z,100775.66
2023-04-15T20:48:02.945Z,100772.93
2023-04-15T20:51:09.335Z,100767.21
2023-04-15T20:54:08.039Z,100772.50
2023-04-15T20:57:13.499Z,100771.14
2023-04-15T21:00:18.498Z,100778.94
2023-04-15T21:03:24.339Z,100787.03
2023-04-15T21:06:31.392Z,100788.54
2023-04-15T21:09:37.105Z,100794.27
2023-04-15T21:12:44.444Z,100790.53
2023-04-15T21:15:49.033Z,100788.75
2023-04-15T21:18:54.807Z,100789.83
2023-04-15T21:22:00.521Z,100796.13
2023-04-15T21:25:06.945Z,100794.61
2023-04-15T21:28:13.542Z,100804.38
2023-04-15T21:31:19.359Z,100802.86
2023-04-15T21:34:24.761Z,100811.09
2023-04-15T21:37:30.455Z,100803.64
2023-04-15T21:40:36.576Z,100801.58
2023-04-15T21:43:42.282Z,100797.64
2023-04-15T21:46:47.719Z,100793.61
2023-04-15T21:49:54.199Z,100789.68
2023-04-15T21:53:00.064Z,100791.81
2023-04-15T21:56:05.219Z,100802.16
2023-04-15T21:59:11.421Z,100795.83
2023-04-15T22:02:16.767Z,100797.27
2023-04-15T22:05:23.900Z,100800.22
2023-04-15T22:08:33.648Z,100802.36
2023-04-15T22:11:37.376Z,100796.06
2023-04-15T22:14:44.128Z,100785.25
2023-04-15T22:17:50.273Z,100792.55
2023-04-15T22:20:49.614Z,100788.75
2023-04-15T22:24:31.769Z,100791.90
2023-04-15T22:27:02.722Z,100776.94
2023-04-15T22:30:08.969Z,100786.45
2023-04-15T22:33:14.664Z,100774.72
2023-04-15T22:36:21.828Z,100779.73
2023-04-15T22:39:28.307Z,100787.31
2023-04-15T22:42:34.591Z,100788.86
2023-04-15T22:45:40.138Z,100797.69
2023-04-15T22:48:46.590Z,100797.60
2023-04-15T22:51:46.217Z,100787.23
2023-04-15T22:54:52.930Z,100789.52
2023-04-15T22:57:59.784Z,100791.66
2023-04-15T23:01:05.838Z,100790.61
2023-04-15T23:04:24.901Z,100785.78
2023-04-15T23:07:17.864Z,100787.06
2023-04-15T23:10:24.736Z,100793.76
2023-04-15T23:13:30.471Z,100796.97
2023-04-15T23:16:36.545Z,100802.33
2023-04-15T23:19:42.856Z,100808.80
2023-04-15T23:22:49.427Z,100812.44
2023-04-15T23:25:55.246Z,100808.82
2023-04-15T23:29:01.759Z,100796.73
2023-04-15T23:32:07.082Z,100800.23
2023-04-15T23:35:13.493Z,100807.84
2023-04-15T23:38:18.658Z,100807.97
2023-04-15T23:41:25.298Z,100813.20
2023-04-15T23:44:31.146Z,100817.46
2023-04-15T23:47:37.616Z,100814.49
2023-04-15T23:50:43.280Z,100829.09
2023-04-15T23:53:49.394Z,100823.75
2023-04-15T23:56:56.116Z,100820.75
